View Sortable Currents For Network
ASOSAWOSCoCoRaHSCOOPDCPISUSM
SchoolNetOtherSCANMy FavoritesBy StateRWIS
RWIS SurfaceRWIS TrafficRWIS SoilBy NWS WFO

Other Networks: West Texas MesonetKentucky MesonetIEM Misc StationsVermont Weather Analytics Center
Times shown are for timezone: America/Chicago. The local day summary is based on that timezone.
Sorted by: (Station ID)     Click on a column to sort it.

ADD: Station: Ob Time Temps °F   Wind [knots]
Air (Hi / Lo) DewP Feels RH% Speed Direction Gust @Time
Adrian 6WSW09:30 AM 61(61/50) 55 60 80 14 180 15@ 09:15 AM
LAKE_ALAN_HENRY09:30 AM 67(67/59) 62 67 85 5 90 9@ 08:20 AM
Aiken 3WSW09:30 AM 64(64/54) 59 64 83 12 120 12@ 09:30 AM
Amarillo 7SSE09:30 AM 62(62/48) 57 62 84 10 160 10@ 09:30 AM
Amarillo North09:30 AM 66(66/47) 57 65 72 11 180 11@ 09:20 AM
Amarillo 15NNW09:30 AM 68(68/49) 57 67 68 10 160 12@ 09:20 AM
AMHERST09:30 AM 61(61/53) 57 60 89 9 120 10@ 09:05 AM
ANDREWS09:30 AM 63(64/59) 59 63 86 10 100 14@ 09:10 AM
ANTON09:30 AM 64(64/53) 59 64 81 12 110 13@ 09:15 AM
ABERNATHY09:30 AM 62(62/53) 59 63 88 12 120 12@ 09:30 AM
ASPERMONT09:30 AM 68(68/60) 63 69 83 5 50 5@ 05:00 AM
San Angelo09:30 AM 66(66/62) 65 68 95 7 70 7@ 09:15 AM
Big Lake 1WNW09:30 AM 69(69/61) 61 69 77 8 60 11@ 04:35 AM
Bootleg 11WNW09:30 AM 58(58/50) 56 58 93 12 170 13@ 09:15 AM
BROWNFLD09:30 AM 62(62/58) 59 62 91 10 90 10@ 07:50 AM
Boys Ranch 1WSW09:30 AM 65(65/47) 54 64 67 4 120 5@ 12:00 AM
Canadian 6E09:30 AM 68(68/50) 58 68 69 8 150 9@ 08:50 AM
CLARENDON09:30 AM 66(66/53) 57 65 75 8 160 9@ 09:15 AM
Fort Chadbourne09:30 AM 66(66/61) 65 68 97 3 90 7@ 07:05 AM
Claude 12SW09:30 AM 62(62/50) 55 61 78 8 170 8@ 09:30 AM
Clyde 2WNW09:30 AM 68(68/63) 64 69 87 7 50 9@ 07:00 AM
Coyanosa 2 N09:30 AM 70(73/66) 58 69 66 6 70 23@ 12:15 AM
Colorado City 5NW09:30 AM 69(69/59) 64 70 82 7 60 10@ 03:55 AM
Crowell 1E09:30 AM 69(69/60) 64 70 85 4 160 6@ 02:50 AM
Childress 2NNE09:30 AM 69(69/58) 60 69 73 9 140 9@ 08:50 AM
Dell City 1 N08:30 AM 71(72/58) 57 70 62 9 130 16@ 12:05 AM
DIMMITT09:30 AM 60(60/52) 56 60 86 9 160 9@ 12:00 AM
Dozier 3W09:30 AM 68(68/55) 61 68 80 4 110 6@ 05:45 AM
2 SW Dora08:30 AM 58(58/54) 55 57 89 11 140 13@ 01:20 AM
DENVER_CITY09:30 AM 60(60/53) 56 60 88 10 100 16@ 08:45 AM
Earth 9WSW09:30 AM 61(61/51) 58 61 88 10 130 10@ 09:05 AM
Endee08:30 AM 61(61/51) 56 60 84 6 160 9@ 08:20 AM
Estelline 3SSE09:30 AM 68(68/58) 61 79 0 0 6@ 12:05 AM
FRIONA09:30 AM 59(59/50) 56 58 90 11 160 11@ 09:05 AM
Fort Lewis08:30 AM 60(60/49) 40 55 47 8 70 12@ 08:00 AM
FLOYDADA09:30 AM 64(64/54) 58 64 81 11 110 11@ 09:05 AM
Fritch 1WNW09:30 AM 67(67/54) 56 66 67 8G13 200 13@ 09:30 AM
FLUVANNA09:30 AM 64(64/60) 60 65 85 8 80 8@ 07:55 AM
GOODLETT09:30 AM 69(69/59) 61 69 77 7 120 8@ 09:20 AM
GAIL09:30 AM 65(65/56) 61 66 87 7 60 11@ 09:00 AM
GRAHAM09:30 AM 62(62/59) 59 62 90 6 90 12@ 08:35 AM
Goodnight09:30 AM 63(63/51) 56 62 78 9 150 9@ 09:30 AM
Pine Springs GMNP09:30 AM 60(64/56) 54 59 83 9 50 14@ 12:50 AM
Haskell 1NW09:30 AM 70(70/63) 62 71 75 4 90 6@ 02:00 AM
Happy09:30 AM 60(60/49) 58 60 92 6 170 7@ 12:00 AM
HEREFORD09:30 AM 60(61/49) 55 59 86 9 170 9@ 09:30 AM
Hobbs 5NW08:30 AM 62(62/56) 58 62 89 7 110 11@ 07:15 AM
HART09:30 AM 60(60/53) 57 60 88 9 140 9@ 09:20 AM
JAYTON09:30 AM 68(68/61) 61 68 81 9 80 9@ 09:00 AM
Junction 1SSWMay-19-18 10:00 PM 67(90/66) 64 68 89 17 140 25@ 10:55 AM
Knox City 3NW09:30 AM 70(70/61) 64 71 79 4 90 4@ 02:15 AM
Fort Lancaster09:30 AM 74(74/66) 62 74 67 4 80 9@ 12:45 AM
LBB_W_MICRONET09:30 AM 65(65/57) 60 65 83 9 90 10@ 09:20 AM
LEVELLAND09:30 AM 62(62/54) 58 62 85 12 100 12@ 09:15 AM
Leslie 2S09:30 AM 69(69/58) 61 69 76 7 110 8@ 09:20 AM
LAMESA09:30 AM 62(62/59) 61 63 94 6 70 9@ 08:20 AM
Lomax 1SSE09:30 AM 66(66/60) 60 66 82 8 90 11@ 09:00 AM
Fort McKavett09:30 AM 71(71/60) 64 72 78 7 30 7@ 08:30 AM
McCamey 1SSW09:30 AM 71(71/66) 60 71 68 7 70 12@ 08:20 AM
MCLEAN09:30 AM 66(66/54) 56 65 70 10 150 10@ 09:05 AM
Menard 2NW09:30 AM 70(70/61) 64 71 81 8 80 8@ 05:50 AM
Mertzon 3NNE09:30 AM 68(68/58) 65 69 90 6 30 6@ 09:20 AM
MEMPHIS09:30 AM 65(65/57) 59 65 80 4 100 5@ 09:00 AM
MORTON09:30 AM 62(62/52) 55 62 77 9 100 10@ 09:15 AM
MULESHOE09:30 AM 60(60/52) 57 60 89 9 130 9@ 09:15 AM
New Home09:30 AM 62(62/57) 60 63 94 10 90 10@ 08:15 AM
1 S Northfield09:30 AM 66(66/56) 60 66 81 5 170 6@ 12:00 AM
4 ENE Odel09:30 AM 69(69/58) 63 70 81 5 130 8@ 08:35 AM
ODONNELL09:30 AM 62(62/58) 58 62 86 9 90 11@ 08:30 AM
OLTON09:30 AM 61(61/52) 57 61 87 11 130 11@ 09:30 AM
Panhandle 1SSW09:30 AM 66(66/46) 56 65 70 14 150 14@ 09:20 AM
PADUCAH09:30 AM 67(67/59) 61 68 80 5 160 7@ 09:15 AM
Palo Duro Canyon SP09:30 AM 61(62/51) 56 60 82 3 140 6@ 12:00 AM
Canyon 16ESE09:30 AM 62(64/52) 57 62 82 2 90 5@ 12:00 AM
Palo Duro 4E09:30 AM 66(66/49) 58 66 74 5 130 8@ 03:00 AM
GUTHRIE09:30 AM 68(68/59) 60 68 77 6 110 7@ 12:00 AM
Persimmon Gap09:30 AM 71(72/66) 57 71 61 11 20 25@ 01:15 AM
PAMPA09:30 AM 67(67/51) 58 66 74 10 160 16@ 09:15 AM
PLAINS09:30 AM 60(60/54) 59 61 93 12 100 17@ 08:55 AM
POST09:30 AM 65(65/57) 60 65 84 7 120 7@ 08:20 AM
PLAINVIEW09:30 AM 62(62/56) 59 62 89 8 120 8@ 09:30 AM
Quitaque09:30 AM 66(66/57) 60 66 79 9 140 10@ 09:05 AM
REESE09:30 AM 64(64/53) 59 64 83 10 100 11@ 08:50 AM
RALLS09:30 AM 64(64/55) 59 64 83 11 110 12@ 09:15 AM
Rotan 5W09:30 AM 67(68/62) 65 69 93 9 50 13@ 08:15 AM
RNG_SPNGS09:30 AM 64(64/58) 61 65 88 6 140 7@ 09:15 AM
Sierra Blanca08:30 AM 67(67/58) 55 66 66 12 120 13@ 08:05 AM
Sterling City09:30 AM 65(66/58) 63 66 92 5 70 7@ 07:05 AM
SUNDOWN09:30 AM 61(61/53) 58 61 90 10 100 10@ 09:05 AM
Seymour 3NW09:30 AM 71(71/60) 64 72 78 4 80 6@ 02:45 AM
SEAGRAVES09:30 AM 61(61/57) 59 61 92 9G14 90 14@ 08:20 AM
SLATON09:30 AM 64(64/56) 60 64 88 8 100 11@ 09:15 AM
SEMINOLE09:30 AM 61(62/56) 58 61 88 12 100 12@ 08:45 AM
SPUR09:30 AM 66(66/59) 60 66 79 8 110 8@ 09:30 AM
St Lawrence09:30 AM 64(65/61) 60 64 87 8 100 10@ 08:00 AM
Stamford 5ESE09:30 AM 70(70/62) 66 72 85 3 110 7@ 12:05 AM
Stinnett 1NNW09:30 AM 65(65/53) 56 64 72 9 170 9@ 09:30 AM
SILVERTON09:30 AM 64(64/51) 56 63 75 11 150 12@ 09:20 AM
Sweetwater 11SW09:30 AM 69(69/59) 63 69 81 12 80 12@ 09:30 AM
SNYDER09:30 AM 67(67/61) 63 68 87 8 80 10@ 02:00 AM
Tarzan 2WNW09:30 AM 63(64/60) 62 64 99 11 90 12@ 08:45 AM
TAHOKA09:30 AM 62(62/56) 60 63 94 13 100 13@ 09:30 AM
2 SW Tatum08:30 AM 61(61/54) 55 60 80 10 100 11@ 07:30 AM
Throckmorton 1SW09:30 AM 69(69/62) 65 71 86 4 110 5@ 08:15 AM
TULIA09:30 AM 61(61/52) 59 61 93 10 140 10@ 09:15 AM
Turkey 2WSW09:30 AM 67(67/59) 60 67 79 10 140 10@ 09:30 AM
Umbarger 3NEE09:30 AM 62(62/46) 56 61 79 12 160 12@ 09:30 AM
Van Horn 3ENE09:30 AM 68(70/60) 55 67 64 1 70 10@ 12:05 AM
Vigo Park09:30 AM 63(63/53) 58 63 82 12 140 12@ 09:30 AM
Wall 1E09:30 AM 69(69/61) 66 70 91 7 60 9@ 09:15 AM
Weinert 2NNE09:30 AM 70(71/63) 62 71 75 5 110 7@ 08:55 AM
Welch09:30 AM 63(63/58) 61 64 94 10 90 10@ 08:20 AM
WOLFFORTH09:30 AM 63(63/56) 59 63 88 13 90 13@ 09:05 AM
Snyder South09:30 AM 67(67/61) 64 68 88 9 70 9@ 08:30 AM
W_RVR_LK09:30 AM 66(66/57) 59 65 78 9 80 9@ 09:30 AM